Leathersville, Georgia
Current Conditions -  °F | °C
As of 11:15 PM on Tuesday 27 Jan 2015 (Local Time) from KHQU Reporting Station
Clear Clear  
Wind Chill: 36°   Ceiling: Unl
Heat Index: 39°   Visibility: 10mi
Dew Point: 32°   Wind: 5mph
Humidity: 74%   Direction: 320°NW
Pressure: 30.1"   Gusts: NA
Location:  33.7816°N, 82.4511°W
Report Text: KHQU 280415Z AUTO 32004KT 10SM CLR 04/00 A3010 RMK AO1 T00401002
Loading
Personal Weather Stations






























Interactive Weather Map New forecast layout! Learn more

10-Day Weather Forecast

Advertisements
Track Severe Weather on mobile